sensor_id;sensor_type;location;lat;lon;timestamp;P1;durP1;ratioP1;P2;durP2;ratioP2
18042;SDS011;9146;48.074;11.968;2023-06-05T00:00:33;6.33;;;5.60;;
18042;SDS011;9146;48.074;11.968;2023-06-05T00:03:02;6.53;;;5.93;;
18042;SDS011;9146;48.074;11.968;2023-06-05T00:05:29;6.03;;;5.50;;
18042;SDS011;9146;48.074;11.968;2023-06-05T00:07:56;8.63;;;6.67;;
18042;SDS011;9146;48.074;11.968;2023-06-05T00:10:23;7.10;;;5.73;;
18042;SDS011;9146;48.074;11.968;2023-06-05T00:12:51;6.40;;;5.80;;
18042;SDS011;9146;48.074;11.968;2023-06-05T00:15:18;7.53;;;6.83;;
18042;SDS011;9146;48.074;11.968;2023-06-05T00:17:45;7.10;;;6.33;;
18042;SDS011;9146;48.074;11.968;2023-06-05T00:20:14;7.70;;;7.00;;
18042;SDS011;9146;48.074;11.968;2023-06-05T00:22:41;7.93;;;6.80;;
18042;SDS011;9146;48.074;11.968;2023-06-05T00:25:09;8.37;;;6.90;;
18042;SDS011;9146;48.074;11.968;2023-06-05T00:27:36;7.97;;;6.87;;
18042;SDS011;9146;48.074;11.968;2023-06-05T00:30:06;7.83;;;6.70;;
18042;SDS011;9146;48.074;11.968;2023-06-05T00:32:33;8.33;;;7.33;;
18042;SDS011;9146;48.074;11.968;2023-06-05T00:35:00;6.37;;;5.83;;
18042;SDS011;9146;48.074;11.968;2023-06-05T00:37:29;6.90;;;6.20;;
18042;SDS011;9146;48.074;11.968;2023-06-05T00:39:58;8.50;;;6.27;;
18042;SDS011;9146;48.074;11.968;2023-06-05T00:42:25;6.57;;;5.97;;
18042;SDS011;9146;48.074;11.968;2023-06-05T00:44:53;7.83;;;6.33;;
18042;SDS011;9146;48.074;11.968;2023-06-05T00:47:20;8.40;;;7.60;;
18042;SDS011;9146;48.074;11.968;2023-06-05T00:49:47;8.23;;;7.33;;
18042;SDS011;9146;48.074;11.968;2023-06-05T00:52:15;7.77;;;7.00;;
18042;SDS011;9146;48.074;11.968;2023-06-05T00:54:44;8.07;;;7.20;;
18042;SDS011;9146;48.074;11.968;2023-06-05T00:57:12;7.83;;;6.93;;
18042;SDS011;9146;48.074;11.968;2023-06-05T00:59:39;7.90;;;7.10;;
18042;SDS011;9146;48.074;11.968;2023-06-05T01:02:09;8.00;;;6.80;;
18042;SDS011;9146;48.074;11.968;2023-06-05T01:04:37;10.83;;;6.93;;
18042;SDS011;9146;48.074;11.968;2023-06-05T01:07:06;8.07;;;7.27;;
18042;SDS011;9146;48.074;11.968;2023-06-05T01:09:33;7.30;;;6.53;;
18042;SDS011;9146;48.074;11.968;2023-06-05T01:12:03;9.30;;;8.40;;
18042;SDS011;9146;48.074;11.968;2023-06-05T01:14:33;8.10;;;7.30;;
18042;SDS011;9146;48.074;11.968;2023-06-05T01:17:01;9.20;;;8.23;;
18042;SDS011;9146;48.074;11.968;2023-06-05T01:19:29;8.00;;;7.20;;
18042;SDS011;9146;48.074;11.968;2023-06-05T01:21:56;9.17;;;7.90;;
18042;SDS011;9146;48.074;11.968;2023-06-05T01:24:27;9.10;;;8.13;;
18042;SDS011;9146;48.074;11.968;2023-06-05T01:26:57;9.40;;;7.13;;
18042;SDS011;9146;48.074;11.968;2023-06-05T01:29:29;8.70;;;7.70;;
18042;SDS011;9146;48.074;11.968;2023-06-05T01:32:00;8.70;;;7.80;;
18042;SDS011;9146;48.074;11.968;2023-06-05T01:34:31;8.70;;;7.80;;
18042;SDS011;9146;48.074;11.968;2023-06-05T01:36:59;9.50;;;8.30;;
18042;SDS011;9146;48.074;11.968;2023-06-05T01:39:28;10.17;;;7.93;;
18042;SDS011;9146;48.074;11.968;2023-06-05T01:41:55;8.57;;;7.73;;
18042;SDS011;9146;48.074;11.968;2023-06-05T01:44:24;8.07;;;7.27;;
18042;SDS011;9146;48.074;11.968;2023-06-05T01:46:53;10.40;;;7.93;;
18042;SDS011;9146;48.074;11.968;2023-06-05T01:49:20;11.40;;;8.83;;
18042;SDS011;9146;48.074;11.968;2023-06-05T01:51:48;8.80;;;7.50;;
18042;SDS011;9146;48.074;11.968;2023-06-05T01:54:15;12.00;;;8.67;;
18042;SDS011;9146;48.074;11.968;2023-06-05T01:56:45;10.70;;;8.27;;
18042;SDS011;9146;48.074;11.968;2023-06-05T01:59:13;15.23;;;8.33;;
18042;SDS011;9146;48.074;11.968;2023-06-05T02:01:41;8.53;;;7.63;;
18042;SDS011;9146;48.074;11.968;2023-06-05T02:04:09;7.77;;;7.10;;
18042;SDS011;9146;48.074;11.968;2023-06-05T02:06:36;11.00;;;8.10;;
18042;SDS011;9146;48.074;11.968;2023-06-05T02:09:08;10.30;;;9.07;;
18042;SDS011;9146;48.074;11.968;2023-06-05T02:11:36;11.37;;;9.07;;
18042;SDS011;9146;48.074;11.968;2023-06-05T02:14:05;8.87;;;7.37;;
18042;SDS011;9146;48.074;11.968;2023-06-05T02:16:32;9.83;;;8.73;;
18042;SDS011;9146;48.074;11.968;2023-06-05T02:19:01;10.77;;;8.53;;
18042;SDS011;9146;48.074;11.968;2023-06-05T02:21:29;9.90;;;9.00;;
18042;SDS011;9146;48.074;11.968;2023-06-05T02:23:58;12.47;;;9.20;;
18042;SDS011;9146;48.074;11.968;2023-06-05T02:26:25;10.30;;;9.23;;
18042;SDS011;9146;48.074;11.968;2023-06-05T02:28:52;10.63;;;9.53;;
18042;SDS011;9146;48.074;11.968;2023-06-05T02:31:22;10.80;;;9.43;;
18042;SDS011;9146;48.074;11.968;2023-06-05T02:33:51;10.47;;;9.47;;
18042;SDS011;9146;48.074;11.968;2023-06-05T02:36:19;11.47;;;9.43;;
18042;SDS011;9146;48.074;11.968;2023-06-05T02:38:46;12.10;;;10.07;;
18042;SDS011;9146;48.074;11.968;2023-06-05T02:41:14;9.20;;;8.20;;
18042;SDS011;9146;48.074;11.968;2023-06-05T02:43:46;9.83;;;8.93;;
18042;SDS011;9146;48.074;11.968;2023-06-05T02:46:13;10.00;;;8.77;;
18042;SDS011;9146;48.074;11.968;2023-06-05T02:48:41;10.70;;;9.60;;
18042;SDS011;9146;48.074;11.968;2023-06-05T02:51:08;10.17;;;9.17;;
18042;SDS011;9146;48.074;11.968;2023-06-05T02:53:36;9.33;;;8.43;;
18042;SDS011;9146;48.074;11.968;2023-06-05T02:56:03;9.10;;;8.13;;
18042;SDS011;9146;48.074;11.968;2023-06-05T02:58:30;8.97;;;8.07;;
18042;SDS011;9146;48.074;11.968;2023-06-05T03:00:58;8.60;;;7.80;;
18042;SDS011;9146;48.074;11.968;2023-06-05T03:03:27;9.50;;;8.60;;
18042;SDS011;9146;48.074;11.968;2023-06-05T03:05:56;8.40;;;7.53;;
18042;SDS011;9146;48.074;11.968;2023-06-05T03:08:29;9.93;;;8.10;;
18042;SDS011;9146;48.074;11.968;2023-06-05T03:10:57;11.10;;;10.00;;
18042;SDS011;9146;48.074;11.968;2023-06-05T03:13:25;10.27;;;8.80;;
18042;SDS011;9146;48.074;11.968;2023-06-05T03:15:51;9.80;;;8.43;;
18042;SDS011;9146;48.074;11.968;2023-06-05T03:18:22;9.93;;;8.70;;
18042;SDS011;9146;48.074;11.968;2023-06-05T03:20:49;8.60;;;7.70;;
18042;SDS011;9146;48.074;11.968;2023-06-05T03:23:17;8.67;;;7.87;;
18042;SDS011;9146;48.074;11.968;2023-06-05T03:25:44;9.33;;;8.00;;
18042;SDS011;9146;48.074;11.968;2023-06-05T03:28:11;11.60;;;9.47;;
18042;SDS011;9146;48.074;11.968;2023-06-05T03:30:38;11.40;;;9.07;;
18042;SDS011;9146;48.074;11.968;2023-06-05T03:33:05;9.20;;;8.40;;
18042;SDS011;9146;48.074;11.968;2023-06-05T03:35:32;12.70;;;8.93;;
18042;SDS011;9146;48.074;11.968;2023-06-05T03:38:00;10.20;;;8.70;;
18042;SDS011;9146;48.074;11.968;2023-06-05T03:40:29;9.23;;;8.43;;
18042;SDS011;9146;48.074;11.968;2023-06-05T03:42:56;14.33;;;9.90;;
18042;SDS011;9146;48.074;11.968;2023-06-05T03:45:23;10.07;;;8.73;;
18042;SDS011;9146;48.074;11.968;2023-06-05T03:47:52;8.77;;;7.87;;
18042;SDS011;9146;48.074;11.968;2023-06-05T03:50:19;10.53;;;9.53;;
18042;SDS011;9146;48.074;11.968;2023-06-05T03:52:48;10.47;;;9.13;;
18042;SDS011;9146;48.074;11.968;2023-06-05T03:55:17;9.93;;;8.93;;
18042;SDS011;9146;48.074;11.968;2023-06-05T03:57:46;9.50;;;8.50;;
18042;SDS011;9146;48.074;11.968;2023-06-05T04:00:13;9.03;;;8.10;;
18042;SDS011;9146;48.074;11.968;2023-06-05T04:02:41;9.30;;;8.40;;
18042;SDS011;9146;48.074;11.968;2023-06-05T04:05:08;9.57;;;8.70;;
18042;SDS011;9146;48.074;11.968;2023-06-05T04:07:37;12.30;;;8.60;;
18042;SDS011;9146;48.074;11.968;2023-06-05T04:10:04;11.10;;;9.13;;
18042;SDS011;9146;48.074;11.968;2023-06-05T04:12:32;9.70;;;8.60;;
18042;SDS011;9146;48.074;11.968;2023-06-05T04:15:01;8.90;;;8.00;;
18042;SDS011;9146;48.074;11.968;2023-06-05T04:17:27;15.20;;;9.50;;
18042;SDS011;9146;48.074;11.968;2023-06-05T04:19:54;10.77;;;8.93;;
18042;SDS011;9146;48.074;11.968;2023-06-05T04:22:21;8.87;;;8.07;;
18042;SDS011;9146;48.074;11.968;2023-06-05T04:24:48;13.23;;;9.73;;
18042;SDS011;9146;48.074;11.968;2023-06-05T04:27:15;11.50;;;9.80;;
18042;SDS011;9146;48.074;11.968;2023-06-05T04:29:43;10.30;;;9.30;;
18042;SDS011;9146;48.074;11.968;2023-06-05T04:32:13;12.17;;;9.50;;
18042;SDS011;9146;48.074;11.968;2023-06-05T04:34:41;11.30;;;9.43;;
18042;SDS011;9146;48.074;11.968;2023-06-05T04:37:08;12.20;;;9.67;;
18042;SDS011;9146;48.074;11.968;2023-06-05T04:39:35;10.97;;;8.93;;
18042;SDS011;9146;48.074;11.968;2023-06-05T04:42:02;10.43;;;9.33;;
18042;SDS011;9146;48.074;11.968;2023-06-05T04:44:29;9.67;;;8.77;;
18042;SDS011;9146;48.074;11.968;2023-06-05T04:46:56;9.13;;;8.23;;
18042;SDS011;9146;48.074;11.968;2023-06-05T04:49:24;10.07;;;9.10;;
18042;SDS011;9146;48.074;11.968;2023-06-05T04:51:51;11.50;;;8.57;;
18042;SDS011;9146;48.074;11.968;2023-06-05T04:54:21;9.43;;;8.33;;
18042;SDS011;9146;48.074;11.968;2023-06-05T04:56:48;12.57;;;8.30;;
18042;SDS011;9146;48.074;11.968;2023-06-05T04:59:15;8.80;;;7.90;;
18042;SDS011;9146;48.074;11.968;2023-06-05T05:01:43;9.87;;;8.73;;
18042;SDS011;9146;48.074;11.968;2023-06-05T05:04:10;10.07;;;9.07;;
18042;SDS011;9146;48.074;11.968;2023-06-05T05:06:39;8.23;;;7.40;;
18042;SDS011;9146;48.074;11.968;2023-06-05T05:09:12;12.27;;;8.63;;
18042;SDS011;9146;48.074;11.968;2023-06-05T05:11:39;8.73;;;7.80;;
18042;SDS011;9146;48.074;11.968;2023-06-05T05:14:06;9.23;;;8.23;;
18042;SDS011;9146;48.074;11.968;2023-06-05T05:16:33;10.13;;;9.10;;
18042;SDS011;9146;48.074;11.968;2023-06-05T05:19:00;9.33;;;8.43;;
18042;SDS011;9146;48.074;11.968;2023-06-05T05:21:28;8.13;;;7.33;;
18042;SDS011;9146;48.074;11.968;2023-06-05T05:23:56;9.50;;;8.40;;
18042;SDS011;9146;48.074;11.968;2023-06-05T05:26:23;11.33;;;8.47;;
18042;SDS011;9146;48.074;11.968;2023-06-05T05:28:51;8.43;;;7.50;;
18042;SDS011;9146;48.074;11.968;2023-06-05T05:31:17;9.57;;;8.67;;
18042;SDS011;9146;48.074;11.968;2023-06-05T05:33:44;10.73;;;9.63;;
18042;SDS011;9146;48.074;11.968;2023-06-05T05:36:11;8.83;;;7.60;;
18042;SDS011;9146;48.074;11.968;2023-06-05T05:38:39;9.60;;;8.30;;
18042;SDS011;9146;48.074;11.968;2023-06-05T05:41:08;12.70;;;8.70;;
18042;SDS011;9146;48.074;11.968;2023-06-05T05:43:34;9.33;;;7.83;;
18042;SDS011;9146;48.074;11.968;2023-06-05T05:46:01;10.70;;;7.57;;
18042;SDS011;9146;48.074;11.968;2023-06-05T05:48:28;9.33;;;7.80;;
18042;SDS011;9146;48.074;11.968;2023-06-05T05:50:55;8.20;;;7.37;;
18042;SDS011;9146;48.074;11.968;2023-06-05T05:53:22;9.80;;;8.10;;
18042;SDS011;9146;48.074;11.968;2023-06-05T05:55:49;9.10;;;7.53;;
18042;SDS011;9146;48.074;11.968;2023-06-05T05:58:17;11.17;;;8.93;;
18042;SDS011;9146;48.074;11.968;2023-06-05T06:00:44;8.83;;;8.00;;
18042;SDS011;9146;48.074;11.968;2023-06-05T06:03:11;9.17;;;7.77;;
18042;SDS011;9146;48.074;11.968;2023-06-05T06:05:39;8.93;;;7.73;;
18042;SDS011;9146;48.074;11.968;2023-06-05T06:08:06;7.53;;;6.83;;
18042;SDS011;9146;48.074;11.968;2023-06-05T06:10:33;6.83;;;6.23;;
18042;SDS011;9146;48.074;11.968;2023-06-05T06:13:01;11.53;;;8.40;;
18042;SDS011;9146;48.074;11.968;2023-06-05T06:15:30;9.63;;;8.63;;
18042;SDS011;9146;48.074;11.968;2023-06-05T06:17:58;9.17;;;8.03;;
18042;SDS011;9146;48.074;11.968;2023-06-05T06:20:27;8.53;;;7.73;;
18042;SDS011;9146;48.074;11.968;2023-06-05T06:22:54;10.47;;;7.80;;
18042;SDS011;9146;48.074;11.968;2023-06-05T06:25:22;8.80;;;7.20;;
18042;SDS011;9146;48.074;11.968;2023-06-05T06:27:51;13.73;;;9.40;;
18042;SDS011;9146;48.074;11.968;2023-06-05T06:30:18;7.33;;;6.63;;
18042;SDS011;9146;48.074;11.968;2023-06-05T06:32:47;15.70;;;9.23;;
18042;SDS011;9146;48.074;11.968;2023-06-05T06:35:15;9.23;;;8.33;;
18042;SDS011;9146;48.074;11.968;2023-06-05T06:37:42;8.57;;;7.70;;
18042;SDS011;9146;48.074;11.968;2023-06-05T06:40:10;12.13;;;8.67;;
18042;SDS011;9146;48.074;11.968;2023-06-05T06:42:37;8.53;;;7.50;;
18042;SDS011;9146;48.074;11.968;2023-06-05T06:45:04;9.00;;;8.20;;
18042;SDS011;9146;48.074;11.968;2023-06-05T06:47:32;12.60;;;8.03;;
18042;SDS011;9146;48.074;11.968;2023-06-05T06:50:00;8.47;;;7.37;;
18042;SDS011;9146;48.074;11.968;2023-06-05T06:52:27;9.50;;;8.50;;
18042;SDS011;9146;48.074;11.968;2023-06-05T06:54:54;11.33;;;8.33;;
18042;SDS011;9146;48.074;11.968;2023-06-05T06:57:21;10.53;;;8.10;;
18042;SDS011;9146;48.074;11.968;2023-06-05T06:59:48;11.07;;;8.10;;
18042;SDS011;9146;48.074;11.968;2023-06-05T07:02:15;10.30;;;8.40;;
18042;SDS011;9146;48.074;11.968;2023-06-05T07:04:45;9.47;;;8.57;;
18042;SDS011;9146;48.074;11.968;2023-06-05T07:07:15;11.90;;;8.70;;
18042;SDS011;9146;48.074;11.968;2023-06-05T07:09:43;7.30;;;6.50;;
18042;SDS011;9146;48.074;11.968;2023-06-05T07:12:11;8.50;;;7.63;;
18042;SDS011;9146;48.074;11.968;2023-06-05T07:14:39;9.80;;;8.63;;
18042;SDS011;9146;48.074;11.968;2023-06-05T07:17:06;9.20;;;7.97;;
18042;SDS011;9146;48.074;11.968;2023-06-05T07:19:34;9.90;;;8.40;;
18042;SDS011;9146;48.074;11.968;2023-06-05T07:22:02;10.00;;;7.37;;
18042;SDS011;9146;48.074;11.968;2023-06-05T07:24:32;11.73;;;9.03;;
18042;SDS011;9146;48.074;11.968;2023-06-05T07:27:01;11.47;;;8.50;;
18042;SDS011;9146;48.074;11.968;2023-06-05T07:29:29;11.97;;;9.37;;
18042;SDS011;9146;48.074;11.968;2023-06-05T07:31:57;10.23;;;8.10;;
18042;SDS011;9146;48.074;11.968;2023-06-05T07:34:24;7.83;;;7.10;;
18042;SDS011;9146;48.074;11.968;2023-06-05T07:36:52;15.17;;;9.13;;
18042;SDS011;9146;48.074;11.968;2023-06-05T07:39:20;9.70;;;7.50;;
18042;SDS011;9146;48.074;11.968;2023-06-05T07:41:49;9.97;;;8.80;;
18042;SDS011;9146;48.074;11.968;2023-06-05T07:44:18;9.30;;;8.30;;
18042;SDS011;9146;48.074;11.968;2023-06-05T07:46:46;7.63;;;6.83;;
18042;SDS011;9146;48.074;11.968;2023-06-05T07:49:14;8.83;;;8.03;;
18042;SDS011;9146;48.074;11.968;2023-06-05T07:51:41;9.60;;;8.33;;
18042;SDS011;9146;48.074;11.968;2023-06-05T07:54:09;8.00;;;7.30;;
18042;SDS011;9146;48.074;11.968;2023-06-05T07:56:37;10.70;;;7.53;;
18042;SDS011;9146;48.074;11.968;2023-06-05T07:59:06;8.83;;;7.93;;
18042;SDS011;9146;48.074;11.968;2023-06-05T08:01:34;10.50;;;9.20;;
18042;SDS011;9146;48.074;11.968;2023-06-05T08:04:01;7.00;;;6.20;;
18042;SDS011;9146;48.074;11.968;2023-06-05T08:06:29;11.73;;;7.47;;
18042;SDS011;9146;48.074;11.968;2023-06-05T08:08:56;10.23;;;7.63;;
18042;SDS011;9146;48.074;11.968;2023-06-05T08:11:24;9.53;;;8.00;;
18042;SDS011;9146;48.074;11.968;2023-06-05T08:13:52;7.70;;;6.90;;
18042;SDS011;9146;48.074;11.968;2023-06-05T08:16:20;10.50;;;7.80;;
18042;SDS011;9146;48.074;11.968;2023-06-05T08:18:47;12.33;;;8.40;;
18042;SDS011;9146;48.074;11.968;2023-06-05T08:21:14;7.73;;;6.93;;
18042;SDS011;9146;48.074;11.968;2023-06-05T08:23:42;11.60;;;8.00;;
18042;SDS011;9146;48.074;11.968;2023-06-05T08:26:08;6.90;;;6.20;;
18042;SDS011;9146;48.074;11.968;2023-06-05T08:28:37;7.43;;;6.73;;
18042;SDS011;9146;48.074;11.968;2023-06-05T08:31:07;12.47;;;6.80;;
18042;SDS011;9146;48.074;11.968;2023-06-05T08:33:43;7.33;;;6.60;;
18042;SDS011;9146;48.074;11.968;2023-06-05T08:36:10;8.63;;;6.00;;
18042;SDS011;9146;48.074;11.968;2023-06-05T08:38:37;7.53;;;5.83;;
18042;SDS011;9146;48.074;11.968;2023-06-05T08:41:04;10.43;;;7.20;;
18042;SDS011;9146;48.074;11.968;2023-06-05T08:43:34;11.03;;;5.97;;
18042;SDS011;9146;48.074;11.968;2023-06-05T08:46:02;6.90;;;6.30;;
18042;SDS011;9146;48.074;11.968;2023-06-05T08:48:31;7.73;;;6.93;;
18042;SDS011;9146;48.074;11.968;2023-06-05T08:51:01;7.80;;;7.00;;
18042;SDS011;9146;48.074;11.968;2023-06-05T08:53:29;6.83;;;6.03;;
18042;SDS011;9146;48.074;11.968;2023-06-05T08:55:59;8.53;;;7.57;;
18042;SDS011;9146;48.074;11.968;2023-06-05T08:58:28;12.43;;;6.40;;
18042;SDS011;9146;48.074;11.968;2023-06-05T09:00:55;14.27;;;7.30;;
18042;SDS011;9146;48.074;11.968;2023-06-05T09:03:22;6.70;;;6.10;;
18042;SDS011;9146;48.074;11.968;2023-06-05T09:05:50;6.50;;;5.97;;
18042;SDS011;9146;48.074;11.968;2023-06-05T09:08:22;8.30;;;6.90;;
18042;SDS011;9146;48.074;11.968;2023-06-05T09:10:56;11.03;;;5.37;;
18042;SDS011;9146;48.074;11.968;2023-06-05T09:13:50;10.47;;;7.27;;
18042;SDS011;9146;48.074;11.968;2023-06-05T09:16:19;9.43;;;6.70;;
18042;SDS011;9146;48.074;11.968;2023-06-05T09:18:53;6.73;;;6.13;;
18042;SDS011;9146;48.074;11.968;2023-06-05T09:21:21;6.77;;;5.80;;
18042;SDS011;9146;48.074;11.968;2023-06-05T09:23:57;5.90;;;5.30;;
18042;SDS011;9146;48.074;11.968;2023-06-05T09:26:47;5.63;;;5.13;;
18042;SDS011;9146;48.074;11.968;2023-06-05T09:29:19;7.77;;;7.07;;
18042;SDS011;9146;48.074;11.968;2023-06-05T09:31:47;7.90;;;7.07;;
18042;SDS011;9146;48.074;11.968;2023-06-05T09:34:20;6.37;;;5.73;;
18042;SDS011;9146;48.074;11.968;2023-06-05T09:36:47;8.03;;;5.80;;
18042;SDS011;9146;48.074;11.968;2023-06-05T09:39:16;9.07;;;6.50;;
18042;SDS011;9146;48.074;11.968;2023-06-05T09:41:45;8.73;;;6.10;;
18042;SDS011;9146;48.074;11.968;2023-06-05T09:44:14;6.50;;;5.90;;
18042;SDS011;9146;48.074;11.968;2023-06-05T09:46:54;6.73;;;6.07;;
18042;SDS011;9146;48.074;11.968;2023-06-05T09:49:24;6.00;;;5.40;;
18042;SDS011;9146;48.074;11.968;2023-06-05T09:51:52;6.60;;;5.80;;
18042;SDS011;9146;48.074;11.968;2023-06-05T09:54:20;9.13;;;6.83;;
18042;SDS011;9146;48.074;11.968;2023-06-05T09:56:48;6.53;;;5.93;;
18042;SDS011;9146;48.074;11.968;2023-06-05T09:59:19;5.50;;;5.00;;
18042;SDS011;9146;48.074;11.968;2023-06-05T10:01:48;8.10;;;5.80;;
18042;SDS011;9146;48.074;11.968;2023-06-05T10:04:16;7.47;;;5.30;;
18042;SDS011;9146;48.074;11.968;2023-06-05T10:06:47;6.03;;;5.53;;
18042;SDS011;9146;48.074;11.968;2023-06-05T10:09:15;11.20;;;6.83;;
18042;SDS011;9146;48.074;11.968;2023-06-05T10:11:43;11.90;;;6.87;;
18042;SDS011;9146;48.074;11.968;2023-06-05T10:14:14;8.10;;;7.17;;
18042;SDS011;9146;48.074;11.968;2023-06-05T10:16:42;7.57;;;6.80;;
18042;SDS011;9146;48.074;11.968;2023-06-05T10:19:09;7.17;;;6.47;;
18042;SDS011;9146;48.074;11.968;2023-06-05T10:21:38;6.60;;;6.00;;
18042;SDS011;9146;48.074;11.968;2023-06-05T10:24:06;6.63;;;5.93;;
18042;SDS011;9146;48.074;11.968;2023-06-05T10:26:39;12.17;;;6.50;;
18042;SDS011;9146;48.074;11.968;2023-06-05T10:29:33;7.90;;;7.13;;
18042;SDS011;9146;48.074;11.968;2023-06-05T10:32:16;7.00;;;6.30;;
18042;SDS011;9146;48.074;11.968;2023-06-05T10:35:01;6.77;;;5.90;;
18042;SDS011;9146;48.074;11.968;2023-06-05T10:37:39;6.43;;;5.77;;
18042;SDS011;9146;48.074;11.968;2023-06-05T10:40:14;8.53;;;6.27;;
18042;SDS011;9146;48.074;11.968;2023-06-05T10:42:42;7.53;;;6.80;;
18042;SDS011;9146;48.074;11.968;2023-06-05T10:45:11;8.07;;;6.13;;
18042;SDS011;9146;48.074;11.968;2023-06-05T10:47:50;8.90;;;7.43;;
18042;SDS011;9146;48.074;11.968;2023-06-05T10:50:21;6.67;;;5.33;;
18042;SDS011;9146;48.074;11.968;2023-06-05T10:52:53;11.83;;;7.20;;
18042;SDS011;9146;48.074;11.968;2023-06-05T10:55:22;5.90;;;5.30;;
18042;SDS011;9146;48.074;11.968;2023-06-05T10:58:06;10.77;;;6.23;;
18042;SDS011;9146;48.074;11.968;2023-06-05T11:00:37;8.00;;;7.20;;
18042;SDS011;9146;48.074;11.968;2023-06-05T11:03:04;11.20;;;7.00;;
18042;SDS011;9146;48.074;11.968;2023-06-05T11:06:12;11.10;;;6.37;;
18042;SDS011;9146;48.074;11.968;2023-06-05T11:08:41;7.50;;;5.47;;
18042;SDS011;9146;48.074;11.968;2023-06-05T11:11:07;6.70;;;5.27;;
18042;SDS011;9146;48.074;11.968;2023-06-05T11:13:53;6.40;;;5.90;;
18042;SDS011;9146;48.074;11.968;2023-06-05T11:16:31;10.00;;;5.73;;
18042;SDS011;9146;48.074;11.968;2023-06-05T11:24:46;5.30;;;4.80;;
18042;SDS011;9146;48.074;11.968;2023-06-05T11:27:55;6.20;;;5.70;;
18042;SDS011;9146;48.074;11.968;2023-06-05T11:30:25;5.57;;;5.07;;
18042;SDS011;9146;48.074;11.968;2023-06-05T11:32:54;6.00;;;4.47;;
18042;SDS011;9146;48.074;11.968;2023-06-05T11:35:24;5.80;;;5.30;;
18042;SDS011;9146;48.074;11.968;2023-06-05T11:38:07;5.97;;;5.47;;
18042;SDS011;9146;48.074;11.968;2023-06-05T11:40:37;4.43;;;4.10;;
18042;SDS011;9146;48.074;11.968;2023-06-05T11:43:05;7.93;;;5.50;;
18042;SDS011;9146;48.074;11.968;2023-06-05T11:45:33;7.80;;;5.17;;
18042;SDS011;9146;48.074;11.968;2023-06-05T11:48:05;4.47;;;4.07;;
18042;SDS011;9146;48.074;11.968;2023-06-05T11:50:33;9.20;;;4.13;;
18042;SDS011;9146;48.074;11.968;2023-06-05T11:53:03;4.53;;;3.70;;
18042;SDS011;9146;48.074;11.968;2023-06-05T11:55:32;4.40;;;4.00;;
18042;SDS011;9146;48.074;11.968;2023-06-05T11:58:20;5.03;;;4.03;;
18042;SDS011;9146;48.074;11.968;2023-06-05T12:00:47;6.10;;;4.10;;
18042;SDS011;9146;48.074;11.968;2023-06-05T12:03:17;5.20;;;4.37;;
18042;SDS011;9146;48.074;11.968;2023-06-05T12:05:44;4.93;;;4.13;;
18042;SDS011;9146;48.074;11.968;2023-06-05T12:08:21;5.00;;;4.40;;
18042;SDS011;9146;48.074;11.968;2023-06-05T12:10:51;5.10;;;4.60;;
18042;SDS011;9146;48.074;11.968;2023-06-05T12:13:18;4.43;;;4.03;;
18042;SDS011;9146;48.074;11.968;2023-06-05T12:15:55;4.77;;;4.20;;
18042;SDS011;9146;48.074;11.968;2023-06-05T12:18:30;9.30;;;5.87;;
18042;SDS011;9146;48.074;11.968;2023-06-05T12:20:57;6.87;;;5.10;;
18042;SDS011;9146;48.074;11.968;2023-06-05T12:23:24;6.73;;;5.53;;
18042;SDS011;9146;48.074;11.968;2023-06-05T12:25:59;5.53;;;5.03;;
18042;SDS011;9146;48.074;11.968;2023-06-05T12:28:26;7.07;;;5.47;;
18042;SDS011;9146;48.074;11.968;2023-06-05T12:30:53;6.03;;;5.23;;
18042;SDS011;9146;48.074;11.968;2023-06-05T12:33:21;5.37;;;4.83;;
18042;SDS011;9146;48.074;11.968;2023-06-05T12:36:01;8.40;;;6.10;;
18042;SDS011;9146;48.074;11.968;2023-06-05T12:38:29;6.27;;;5.67;;
18042;SDS011;9146;48.074;11.968;2023-06-05T12:40:56;7.13;;;5.87;;
18042;SDS011;9146;48.074;11.968;2023-06-05T12:43:24;6.07;;;5.47;;
18042;SDS011;9146;48.074;11.968;2023-06-05T12:45:51;6.30;;;5.70;;
18042;SDS011;9146;48.074;11.968;2023-06-05T12:48:19;5.57;;;5.00;;
18042;SDS011;9146;48.074;11.968;2023-06-05T12:50:46;8.00;;;4.93;;
18042;SDS011;9146;48.074;11.968;2023-06-05T12:53:13;5.77;;;5.17;;
18042;SDS011;9146;48.074;11.968;2023-06-05T12:55:39;6.43;;;5.83;;
18042;SDS011;9146;48.074;11.968;2023-06-05T12:58:07;5.80;;;4.90;;
18042;SDS011;9146;48.074;11.968;2023-06-05T13:00:36;8.20;;;6.33;;
18042;SDS011;9146;48.074;11.968;2023-06-05T13:03:03;5.10;;;4.60;;
18042;SDS011;9146;48.074;11.968;2023-06-05T13:05:30;8.20;;;5.43;;
18042;SDS011;9146;48.074;11.968;2023-06-05T13:07:57;6.53;;;5.97;;
18042;SDS011;9146;48.074;11.968;2023-06-05T13:10:24;6.37;;;5.70;;
18042;SDS011;9146;48.074;11.968;2023-06-05T13:12:51;5.17;;;4.67;;
18042;SDS011;9146;48.074;11.968;2023-06-05T13:15:18;6.80;;;6.20;;
18042;SDS011;9146;48.074;11.968;2023-06-05T13:17:47;7.00;;;5.57;;
18042;SDS011;9146;48.074;11.968;2023-06-05T13:20:14;6.70;;;5.70;;
18042;SDS011;9146;48.074;11.968;2023-06-05T13:22:41;6.87;;;6.00;;
18042;SDS011;9146;48.074;11.968;2023-06-05T13:25:08;6.57;;;5.93;;
18042;SDS011;9146;48.074;11.968;2023-06-05T13:27:36;6.40;;;5.50;;
18042;SDS011;9146;48.074;11.968;2023-06-05T13:30:03;5.63;;;5.23;;
18042;SDS011;9146;48.074;11.968;2023-06-05T13:32:31;6.67;;;6.07;;
18042;SDS011;9146;48.074;11.968;2023-06-05T13:35:00;6.17;;;5.67;;
18042;SDS011;9146;48.074;11.968;2023-06-05T13:37:27;6.90;;;6.20;;
18042;SDS011;9146;48.074;11.968;2023-06-05T13:39:54;5.43;;;4.90;;
18042;SDS011;9146;48.074;11.968;2023-06-05T13:42:20;5.67;;;5.10;;
18042;SDS011;9146;48.074;11.968;2023-06-05T13:44:48;5.30;;;4.80;;
18042;SDS011;9146;48.074;11.968;2023-06-05T13:47:15;6.10;;;5.50;;
18042;SDS011;9146;48.074;11.968;2023-06-05T13:49:41;6.50;;;5.57;;
18042;SDS011;9146;48.074;11.968;2023-06-05T13:52:10;5.07;;;4.60;;
18042;SDS011;9146;48.074;11.968;2023-06-05T13:54:37;5.60;;;5.10;;
18042;SDS011;9146;48.074;11.968;2023-06-05T13:57:06;5.03;;;4.53;;
18042;SDS011;9146;48.074;11.968;2023-06-05T13:59:33;7.30;;;4.87;;
18042;SDS011;9146;48.074;11.968;2023-06-05T14:02:00;5.10;;;4.60;;
18042;SDS011;9146;48.074;11.968;2023-06-05T14:04:27;7.17;;;5.47;;
18042;SDS011;9146;48.074;11.968;2023-06-05T14:06:54;5.47;;;5.07;;
18042;SDS011;9146;48.074;11.968;2023-06-05T14:09:24;7.60;;;5.73;;
18042;SDS011;9146;48.074;11.968;2023-06-05T14:11:53;5.60;;;4.77;;
18042;SDS011;9146;48.074;11.968;2023-06-05T14:14:20;6.40;;;5.30;;
18042;SDS011;9146;48.074;11.968;2023-06-05T14:16:46;6.47;;;5.87;;
18042;SDS011;9146;48.074;11.968;2023-06-05T14:19:14;4.57;;;4.17;;
18042;SDS011;9146;48.074;11.968;2023-06-05T14:21:40;6.30;;;4.30;;
18042;SDS011;9146;48.074;11.968;2023-06-05T14:24:08;9.53;;;5.93;;
18042;SDS011;9146;48.074;11.968;2023-06-05T14:26:37;6.00;;;4.80;;
18042;SDS011;9146;48.074;11.968;2023-06-05T14:29:03;7.73;;;5.13;;
18042;SDS011;9146;48.074;11.968;2023-06-05T14:31:30;7.27;;;6.50;;
18042;SDS011;9146;48.074;11.968;2023-06-05T14:33:57;5.33;;;4.93;;
18042;SDS011;9146;48.074;11.968;2023-06-05T14:36:24;11.97;;;5.43;;
18042;SDS011;9146;48.074;11.968;2023-06-05T14:38:51;6.70;;;6.10;;
18042;SDS011;9146;48.074;11.968;2023-06-05T14:41:18;6.63;;;6.03;;
18042;SDS011;9146;48.074;11.968;2023-06-05T14:43:47;9.40;;;5.63;;
18042;SDS011;9146;48.074;11.968;2023-06-05T14:46:13;6.50;;;4.80;;
18042;SDS011;9146;48.074;11.968;2023-06-05T14:48:42;6.50;;;5.90;;
18042;SDS011;9146;48.074;11.968;2023-06-05T14:51:10;13.00;;;8.10;;
18042;SDS011;9146;48.074;11.968;2023-06-05T14:53:37;8.60;;;7.30;;
18042;SDS011;9146;48.074;11.968;2023-06-05T14:56:04;6.10;;;5.60;;
18042;SDS011;9146;48.074;11.968;2023-06-05T14:58:31;6.87;;;6.10;;